Terminal Aerodrome Forecast
Issued by NWS

Home | Current Version | Previous Version | Text Only | Print | Product List | Glossary On
Versions: 1 2 3 4 5 6 7 8 9 10 11 12
000
FTUS44 KTSA 210926 AAA
TAFMLC
TAF AMD
KMLC 210926Z 2109/2206 17010G16KT P6SM BKN018 WS020/19040KT
     FM211600 18012G18KT P6SM BKN012
     FM211800 18014G22KT P6SM BKN020
     FM220200 19015KT P6SM VCTS BKN025CB
     FM220300 35011G20KT 3SM TSRA BKN025CB
     FM220500 35012KT 5SM -TSRA BKN025CB=

USA.gov is the U.S. government's official web portal to all federal, state and local government web resources and services.